Time;durP1;ratioP1;P1;durP2;ratioP2;P2;SDS_P1;SDS_P2;PMS_P1;PMS_P2;Temp;Humidity;BMP_temperature;BMP_pressure;BME280_temperature;BME280_humidity;BME280_pressure;Samples;Min_cycle;Max_cycle;Signal;HPM_P1;HPM_P2
2021/11/24 00:02:03;;;;;;;2.17;1.50;;;7.90;99.90;;;;;;5054383;28;20029;-62
2021/11/24 00:04:29;;;;;;;3.30;2.20;;;7.90;99.90;;;;;;5062685;28;20055;-62
2021/11/24 00:06:54;;;;;;;3.13;2.10;;;7.90;99.90;;;;;;5060350;28;20393;-62
2021/11/24 00:09:20;;;;;;;3.05;2.65;;;7.90;99.90;;;;;;5058783;28;20025;-62
2021/11/24 00:11:45;;;;;;;3.00;2.25;;;7.90;99.90;;;;;;5059492;28;20020;-62
2021/11/24 00:14:11;;;;;;;3.30;2.10;;;7.90;99.90;;;;;;5056711;28;20350;-62
2021/11/24 00:16:36;;;;;;;3.08;2.30;;;7.90;99.90;;;;;;5058184;28;20029;-62
2021/11/24 00:19:02;;;;;;;3.85;2.53;;;7.90;99.90;;;;;;5057652;28;20029;-62
2021/11/24 00:21:27;;;;;;;3.35;2.78;;;7.80;99.90;;;;;;5064872;28;20033;-62
2021/11/24 00:23:53;;;;;;;3.63;2.90;;;7.80;99.90;;;;;;5059356;28;20105;-62
2021/11/24 00:26:18;;;;;;;4.80;3.20;;;7.80;99.90;;;;;;5058680;28;20021;-62
2021/11/24 00:28:44;;;;;;;3.17;2.25;;;7.80;99.90;;;;;;5065400;28;20021;-62
2021/11/24 00:31:09;;;;;;;3.38;2.70;;;7.80;99.90;;;;;;5062157;28;20089;-62
2021/11/24 00:33:35;;;;;;;3.83;3.47;;;7.80;99.90;;;;;;5053607;28;20029;-62
2021/11/24 00:36:01;;;;;;;5.85;3.75;;;7.80;99.90;;;;;;5059890;28;20024;-62
2021/11/24 00:38:27;;;;;;;5.20;3.78;;;7.80;99.90;;;;;;5057054;28;20032;-62
2021/11/24 00:40:52;;;;;;;5.10;3.83;;;7.80;99.90;;;;;;5059687;28;20033;-62
2021/11/24 00:43:21;;;;;;;4.72;4.13;;;7.80;99.90;;;;;;5061359;28;20504;-62
2021/11/24 00:45:46;;;;;;;4.82;4.10;;;7.80;99.90;;;;;;5061533;28;20098;-62
2021/11/24 00:48:12;;;;;;;4.93;4.43;;;7.80;99.90;;;;;;5056659;28;20510;-62
2021/11/24 00:50:37;;;;;;;5.00;4.13;;;7.80;99.90;;;;;;5058342;28;20100;-62
2021/11/24 00:53:03;;;;;;;4.60;4.10;;;7.70;99.90;;;;;;5064306;28;20029;-62
2021/11/24 00:55:28;;;;;;;5.60;3.90;;;7.70;99.90;;;;;;5059202;28;20020;-62
2021/11/24 00:57:55;;;;;;;4.85;3.97;;;7.70;99.90;;;;;;5065034;28;20024;-62
2021/11/24 01:00:21;;;;;;;6.50;5.03;;;7.60;99.90;;;;;;5060341;28;20099;-62
2021/11/24 01:02:47;;;;;;;5.03;4.53;;;7.60;99.90;;;;;;5051847;28;20068;-62
2021/11/24 01:05:13;;;;;;;5.25;4.72;;;7.60;99.90;;;;;;5062029;28;20028;-62
2021/11/24 01:07:38;;;;;;;7.35;6.22;;;7.60;99.90;;;;;;5062768;28;20025;-61
2021/11/24 01:10:05;;;;;;;7.20;6.10;;;7.60;99.90;;;;;;5058605;28;20020;-62
2021/11/24 01:12:32;;;;;;;8.88;6.65;;;7.60;99.90;;;;;;5058710;28;20081;-62
2021/11/24 01:14:57;;;;;;;8.20;6.85;;;7.60;99.90;;;;;;5059212;28;20154;-62
2021/11/24 01:17:23;;;;;;;8.20;6.88;;;7.60;99.90;;;;;;5062168;28;20512;-62
2021/11/24 01:19:48;;;;;;;7.93;7.13;;;7.60;99.90;;;;;;5053194;28;20052;-62
2021/11/24 01:22:14;;;;;;;9.07;6.93;;;7.60;99.90;;;;;;5056563;28;20083;-62
2021/11/24 01:24:40;;;;;;;7.47;6.05;;;7.60;99.90;;;;;;5059762;28;20025;-62
2021/11/24 01:27:06;;;;;;;7.43;6.13;;;7.60;99.90;;;;;;5058499;28;20056;-62
2021/11/24 01:29:32;;;;;;;7.78;6.10;;;7.60;99.90;;;;;;5052530;28;20132;-62
2021/11/24 01:31:58;;;;;;;5.75;5.10;;;7.70;99.90;;;;;;5051658;28;20492;-62
2021/11/24 01:34:23;;;;;;;7.43;6.18;;;7.70;99.90;;;;;;5053366;28;20017;-62
2021/11/24 01:36:49;;;;;;;7.53;6.30;;;7.70;99.90;;;;;;5052719;28;20477;-62
2021/11/24 01:39:14;;;;;;;7.13;6.15;;;7.60;99.90;;;;;;5058773;28;20087;-62
2021/11/24 01:41:40;;;;;;;6.85;6.15;;;7.50;99.90;;;;;;5059655;28;20078;-62
2021/11/24 01:44:06;;;;;;;6.55;5.78;;;7.50;99.90;;;;;;5052862;28;20021;-62
2021/11/24 01:46:31;;;;;;;7.47;5.75;;;7.50;99.90;;;;;;5051912;28;20040;-62
2021/11/24 01:48:57;;;;;;;9.20;6.63;;;7.50;99.90;;;;;;5063488;28;20066;-62
2021/11/24 01:51:23;;;;;;;7.53;6.57;;;7.60;99.90;;;;;;5057892;28;20513;-62
2021/11/24 01:53:48;;;;;;;8.00;6.40;;;7.60;99.90;;;;;;5054513;28;20515;-62
2021/11/24 01:56:14;;;;;;;9.20;7.05;;;7.60;99.90;;;;;;5057629;28;20021;-62
2021/11/24 01:58:41;;;;;;;10.23;7.75;;;7.50;99.90;;;;;;5059172;28;20060;-62
2021/11/24 02:01:06;;;;;;;11.20;7.43;;;7.50;99.90;;;;;;5055853;28;20036;-62
2021/11/24 02:03:32;;;;;;;10.02;7.47;;;7.50;99.90;;;;;;5062569;28;20067;-62
2021/11/24 02:05:58;;;;;;;17.90;8.20;;;7.50;99.90;;;;;;5053349;28;20021;-62
2021/11/24 02:08:24;;;;;;;8.57;7.40;;;7.40;99.90;;;;;;5055296;28;20428;-62
2021/11/24 02:10:50;;;;;;;20.48;7.05;;;7.40;99.90;;;;;;5060659;28;20028;-62
2021/11/24 02:13:15;;;;;;;10.55;7.18;;;7.30;99.90;;;;;;5057318;28;20021;-62
2021/11/24 02:15:41;;;;;;;9.00;7.13;;;7.30;99.90;;;;;;5060084;28;20066;-62
2021/11/24 02:18:08;;;;;;;8.32;6.20;;;7.30;99.90;;;;;;5054513;28;20397;-62
2021/11/24 02:20:34;;;;;;;13.23;6.93;;;7.30;99.90;;;;;;5057253;28;20039;-62
2021/11/24 02:23:00;;;;;;;10.45;8.95;;;7.30;99.90;;;;;;5054304;28;20532;-62
2021/11/24 02:25:26;;;;;;;21.27;8.00;;;7.30;99.90;;;;;;5060009;28;20033;-62
2021/11/24 02:27:51;;;;;;;25.80;8.52;;;7.30;99.90;;;;;;5056829;28;20024;-62
2021/11/24 02:30:17;;;;;;;19.25;7.90;;;7.20;99.90;;;;;;5054415;28;20063;-62
2021/11/24 02:32:43;;;;;;;16.73;8.20;;;7.20;99.90;;;;;;5059718;28;20016;-61
2021/11/24 02:35:09;;;;;;;23.35;8.45;;;7.20;99.90;;;;;;5059620;28;20036;-62
2021/11/24 02:37:34;;;;;;;15.93;8.43;;;7.20;99.90;;;;;;5055551;28;20527;-62
2021/11/24 02:40:00;;;;;;;10.27;8.45;;;7.20;99.90;;;;;;5050244;28;20108;-62
2021/11/24 02:42:25;;;;;;;9.32;7.35;;;7.20;99.90;;;;;;5059884;28;20032;-62
2021/11/24 02:44:52;;;;;;;11.35;8.13;;;7.30;99.90;;;;;;5054739;28;20108;-62
2021/11/24 02:47:19;;;;;;;11.35;7.45;;;7.30;99.90;;;;;;5067084;28;20094;-62
2021/11/24 02:49:51;;;;;;;11.38;7.90;;;7.30;99.90;;;;;;5059617;28;20055;-61
2021/11/24 02:52:18;;;;;;;12.30;7.22;;;7.30;99.90;;;;;;5054189;28;20017;-62
2021/11/24 02:55:05;;;;;;;16.15;8.05;;;7.30;99.90;;;;;;5056623;28;20025;-62
2021/11/24 02:57:43;;;;;;;18.40;7.65;;;7.40;99.90;;;;;;5056661;28;20048;-62
2021/11/24 03:00:17;;;;;;;13.25;7.57;;;7.30;99.90;;;;;;5056907;28;20052;-62
2021/11/24 03:02:44;;;;;;;17.13;7.55;;;7.30;99.90;;;;;;5056194;28;20017;-62
2021/11/24 03:05:11;;;;;;;15.40;7.50;;;7.30;99.90;;;;;;5051717;28;20048;-62
2021/11/24 03:07:37;;;;;;;13.18;6.50;;;7.30;99.90;;;;;;5059272;28;20151;-62
2021/11/24 03:10:04;;;;;;;11.00;6.95;;;7.30;99.90;;;;;;5060222;28;20505;-62
2021/11/24 03:12:30;;;;;;;15.90;6.70;;;7.30;99.90;;;;;;5061548;28;20035;-62
2021/11/24 03:14:55;;;;;;;15.43;6.28;;;7.30;99.90;;;;;;5053443;28;20017;-62
2021/11/24 03:17:21;;;;;;;9.75;6.93;;;7.30;99.90;;;;;;5063468;28;20521;-62
2021/11/24 03:19:48;;;;;;;11.85;6.90;;;7.20;99.90;;;;;;5057059;28;20067;-62
2021/11/24 03:22:14;;;;;;;14.85;7.30;;;7.30;99.90;;;;;;5056590;28;20468;-62
2021/11/24 03:24:39;;;;;;;12.40;6.45;;;7.30;99.90;;;;;;5051595;28;20113;-62
2021/11/24 03:27:05;;;;;;;14.23;6.43;;;7.30;99.90;;;;;;5058573;28;20301;-62
2021/11/24 03:29:30;;;;;;;13.00;6.30;;;7.30;99.90;;;;;;5055435;28;20435;-62
2021/11/24 03:31:56;;;;;;;16.48;6.53;;;7.30;99.90;;;;;;5053864;28;20033;-62
2021/11/24 03:34:21;;;;;;;13.85;6.03;;;7.30;99.90;;;;;;5056240;28;20021;-62
2021/11/24 03:36:47;;;;;;;10.65;5.60;;;7.30;99.90;;;;;;5054909;28;20474;-62
2021/11/24 03:39:12;;;;;;;10.02;6.20;;;7.30;99.90;;;;;;5053612;28;20432;-62
2021/11/24 03:41:38;;;;;;;7.60;5.82;;;7.30;99.90;;;;;;5056694;28;20413;-62
2021/11/24 03:44:04;;;;;;;12.00;6.65;;;7.30;99.90;;;;;;5059256;28;20032;-62
2021/11/24 03:46:29;;;;;;;7.03;5.75;;;7.30;99.90;;;;;;5053171;28;20508;-62
2021/11/24 03:48:55;;;;;;;10.30;5.72;;;7.30;99.90;;;;;;5057193;28;20376;-62
2021/11/24 03:51:21;;;;;;;9.13;6.15;;;7.30;99.90;;;;;;5055636;28;20470;-62
2021/11/24 03:54:22;;;;;;;8.02;6.03;;;7.30;99.90;;;;;;5053289;28;20033;-62
2021/11/24 03:56:47;;;;;;;6.45;5.15;;;7.30;99.90;;;;;;5054530;28;20040;-62
2021/11/24 03:59:13;;;;;;;7.18;5.80;;;7.30;99.90;;;;;;5061288;28;20074;-62
2021/11/24 04:01:39;;;;;;;7.88;6.20;;;7.30;99.90;;;;;;5055830;28;20021;-62
2021/11/24 04:04:04;;;;;;;6.68;5.38;;;7.30;99.90;;;;;;5059841;28;20449;-62
2021/11/24 04:06:31;;;;;;;7.28;5.88;;;7.30;99.90;;;;;;5062103;28;20524;-62
2021/11/24 04:08:57;;;;;;;7.85;6.20;;;7.30;99.90;;;;;;5063629;28;20021;-62
2021/11/24 04:11:22;;;;;;;7.50;6.20;;;7.30;99.90;;;;;;5055761;28;20384;-62
2021/11/24 04:13:48;;;;;;;9.32;7.68;;;7.30;99.90;;;;;;5056859;28;20123;-62
2021/11/24 04:16:13;;;;;;;8.50;6.93;;;7.20;99.90;;;;;;5057209;28;20017;-62
2021/11/24 04:18:39;;;;;;;7.97;6.55;;;7.20;99.90;;;;;;5065773;28;20048;-62
2021/11/24 04:21:04;;;;;;;7.15;6.10;;;7.20;99.90;;;;;;5063638;28;20029;-62
2021/11/24 04:23:30;;;;;;;7.32;5.85;;;7.20;99.90;;;;;;5059262;28;20025;-62
2021/11/24 04:25:56;;;;;;;7.05;5.97;;;7.20;99.90;;;;;;5057387;28;20381;-62
2021/11/24 04:28:22;;;;;;;7.47;6.07;;;7.10;99.90;;;;;;5058624;28;20036;-62
2021/11/24 04:30:48;;;;;;;6.82;5.93;;;7.10;99.90;;;;;;5056507;28;20029;-62
2021/11/24 04:33:16;;;;;;;8.23;6.57;;;7.10;99.90;;;;;;5062404;28;20021;-62
2021/11/24 04:35:42;;;;;;;9.23;6.57;;;7.10;99.90;;;;;;5058048;28;20071;-62
2021/11/24 04:38:08;;;;;;;8.00;6.35;;;7.10;99.90;;;;;;5056622;28;20456;-62
2021/11/24 04:40:34;;;;;;;8.90;7.13;;;7.10;99.90;;;;;;5060650;28;20074;-62
2021/11/24 04:43:02;;;;;;;11.77;7.10;;;7.00;99.90;;;;;;5063679;28;20070;-62
2021/11/24 04:45:28;;;;;;;14.88;6.95;;;7.00;99.90;;;;;;5061823;28;20028;-62
2021/11/24 04:47:56;;;;;;;10.77;7.95;;;7.00;99.90;;;;;;5055998;28;20037;-62
2021/11/24 04:50:22;;;;;;;16.65;7.45;;;7.00;99.90;;;;;;5061698;28;20020;-61
2021/11/24 04:52:48;;;;;;;12.85;7.00;;;7.00;99.90;;;;;;5061720;28;20074;-61
2021/11/24 04:55:15;;;;;;;12.18;6.85;;;7.00;99.90;;;;;;5058501;28;20067;-62
2021/11/24 04:57:41;;;;;;;19.77;6.60;;;6.90;99.90;;;;;;5059127;28;20051;-61
2021/11/24 05:00:11;;;;;;;9.35;6.07;;;6.90;99.90;;;;;;5059996;28;20554;-61
2021/11/24 05:02:37;;;;;;;9.93;6.35;;;6.90;99.90;;;;;;5053280;28;20392;-62
2021/11/24 05:05:03;;;;;;;11.43;6.65;;;6.90;99.90;;;;;;5063071;28;20025;-61
2021/11/24 05:07:29;;;;;;;20.63;6.60;;;6.90;99.90;;;;;;5056461;28;20485;-62
2021/11/24 05:09:54;;;;;;;11.10;6.35;;;6.80;99.90;;;;;;5061213;28;20064;-62
2021/11/24 05:12:20;;;;;;;9.00;6.13;;;6.80;99.90;;;;;;5053267;28;20025;-62
2021/11/24 05:14:48;;;;;;;9.27;6.18;;;6.80;99.90;;;;;;5058446;28;20522;-61
2021/11/24 05:17:16;;;;;;;9.07;6.95;;;6.80;99.90;;;;;;5059003;28;20017;-62
2021/11/24 05:19:46;;;;;;;16.45;8.38;;;6.80;99.90;;;;;;5058448;28;20548;-62
2021/11/24 05:22:12;;;;;;;17.15;8.75;;;6.80;99.90;;;;;;5052825;28;20461;-61
2021/11/24 05:24:38;;;;;;;15.90;8.48;;;6.80;99.90;;;;;;5057898;28;20021;-62
2021/11/24 05:27:04;;;;;;;11.63;7.95;;;6.80;99.90;;;;;;5061001;28;20384;-62
2021/11/24 05:29:29;;;;;;;14.38;7.35;;;6.80;99.90;;;;;;5051489;28;20017;-62
2021/11/24 05:31:55;;;;;;;8.18;7.03;;;6.80;99.90;;;;;;5082588;28;20102;-61
2021/11/24 05:34:21;;;;;;;14.45;7.13;;;6.80;99.90;;;;;;5054682;28;20025;-62
2021/11/24 05:36:46;;;;;;;13.65;7.07;;;6.80;99.90;;;;;;5062549;28;20098;-62
2021/11/24 05:39:12;;;;;;;8.93;6.40;;;6.80;99.90;;;;;;5061196;28;20021;-62
2021/11/24 05:41:41;;;;;;;8.75;7.18;;;6.80;99.90;;;;;;5056060;28;20024;-62
2021/11/24 05:44:25;;;;;;;7.88;6.35;;;6.80;99.90;;;;;;5055905;28;20025;-62
2021/11/24 05:47:02;;;;;;;8.93;6.90;;;6.90;99.90;;;;;;5058214;28;20564;-62
2021/11/24 05:49:28;;;;;;;10.35;6.60;;;6.90;99.90;;;;;;5062745;28;20024;-62
2021/11/24 05:51:56;;;;;;;10.07;7.43;;;6.90;99.90;;;;;;5053770;28;20514;-62
2021/11/24 05:54:21;;;;;;;13.20;7.00;;;6.90;99.90;;;;;;5060616;28;20073;-61
2021/11/24 05:56:47;;;;;;;16.40;10.30;;;6.90;99.90;;;;;;5060299;28;20033;-62
2021/11/24 05:59:15;;;;;;;10.73;8.30;;;6.70;99.90;;;;;;5057925;28;20017;-62
2021/11/24 06:01:40;;;;;;;8.32;7.35;;;6.70;99.90;;;;;;5059548;28;20025;-62
2021/11/24 06:04:06;;;;;;;10.65;9.27;;;6.60;99.90;;;;;;5059154;28;20495;-62
2021/11/24 06:06:33;;;;;;;8.82;7.85;;;6.70;99.90;;;;;;5057161;28;20033;-62
2021/11/24 06:08:59;;;;;;;7.63;6.80;;;6.70;99.90;;;;;;5057433;28;20047;-62
2021/11/24 06:11:25;;;;;;;8.23;7.22;;;6.70;99.90;;;;;;5077713;28;20115;-62
2021/11/24 06:13:51;;;;;;;9.05;7.40;;;6.70;99.90;;;;;;5055154;28;20544;-62
2021/11/24 06:16:17;;;;;;;9.43;7.47;;;6.70;99.90;;;;;;5059700;28;20385;-62
2021/11/24 06:18:43;;;;;;;11.38;8.80;;;6.80;99.90;;;;;;5057568;28;20031;-62
2021/11/24 06:21:08;;;;;;;9.88;8.48;;;6.80;99.90;;;;;;5057610;28;20108;-62
2021/11/24 06:23:39;;;;;;;9.15;8.05;;;6.80;99.90;;;;;;5054612;28;20032;-62
2021/11/24 06:26:05;;;;;;;8.50;7.18;;;6.80;99.90;;;;;;5061533;28;20021;-62
2021/11/24 06:28:31;;;;;;;9.10;7.32;;;6.80;99.90;;;;;;5059060;28;20024;-62
2021/11/24 06:30:56;;;;;;;8.88;7.50;;;6.90;99.90;;;;;;5057894;28;20025;-62
2021/11/24 06:33:22;;;;;;;8.02;6.85;;;6.80;99.90;;;;;;5063154;28;20153;-62
2021/11/24 06:35:48;;;;;;;7.30;6.30;;;6.90;99.90;;;;;;5062569;28;20468;-62
2021/11/24 06:38:20;;;;;;;8.25;7.20;;;6.80;99.90;;;;;;5051307;28;20032;-62
2021/11/24 06:40:45;;;;;;;9.32;7.47;;;6.90;99.90;;;;;;5058990;28;20056;-62
2021/11/24 06:43:11;;;;;;;8.68;7.22;;;6.80;99.90;;;;;;5055201;28;20056;-62
2021/11/24 06:45:36;;;;;;;8.98;6.95;;;6.80;99.90;;;;;;5051482;28;20118;-62
2021/11/24 06:48:02;;;;;;;8.75;7.05;;;6.80;99.90;;;;;;5053912;28;20087;-62
2021/11/24 06:50:28;;;;;;;8.95;6.85;;;6.90;99.90;;;;;;5066018;28;20013;-62
2021/11/24 06:52:54;;;;;;;12.70;7.22;;;6.90;99.90;;;;;;5070272;28;20061;-62
2021/11/24 06:55:35;;;;;;;10.20;6.78;;;6.90;99.90;;;;;;5064000;28;20100;-62
2021/11/24 06:58:01;;;;;;;8.52;6.80;;;6.90;99.90;;;;;;5063074;28;20028;-61
2021/11/24 07:01:01;;;;;;;10.55;7.07;;;6.90;99.90;;;;;;5054558;28;20115;-62
2021/11/24 07:04:38;;;;;;;;;;;;;;;;;;;;;
2021/11/24 07:06:53;;;;;;;10.75;6.70;;;6.90;99.90;;;;;;5069002;28;20369;-61
2021/11/24 07:09:18;;;;;;;8.00;6.18;;;6.90;99.90;;;;;;5072497;28;20017;-61
2021/11/24 07:11:44;;;;;;;10.02;7.90;;;6.90;99.90;;;;;;5072513;28;20023;-61
2021/11/24 07:14:10;;;;;;;9.65;7.47;;;6.90;99.90;;;;;;5072640;28;20476;-62
2021/11/24 07:16:37;;;;;;;9.55;6.80;;;6.90;99.90;;;;;;5072167;28;20052;-62
2021/11/24 07:19:08;;;;;;;9.18;6.82;;;7.00;99.90;;;;;;5072500;28;20510;-62
2021/11/24 07:21:34;;;;;;;9.68;7.78;;;7.00;99.90;;;;;;5072310;28;20111;-61
2021/11/24 07:24:03;;;;;;;9.90;7.38;;;7.00;99.90;;;;;;5072438;28;20480;-62
2021/11/24 07:26:29;;;;;;;10.15;7.38;;;7.00;99.90;;;;;;5072215;28;20493;-61
2021/11/24 07:28:54;;;;;;;10.95;7.78;;;7.00;99.90;;;;;;5072691;28;20017;-62
2021/11/24 07:31:20;;;;;;;13.48;9.65;;;7.00;99.90;;;;;;5076129;28;20028;-62
2021/11/24 07:33:45;;;;;;;14.80;11.77;;;7.00;99.90;;;;;;5075869;28;20037;-62
2021/11/24 07:36:11;;;;;;;12.52;10.18;;;6.90;99.90;;;;;;5076228;28;20056;-61
2021/11/24 07:38:36;;;;;;;11.18;8.73;;;6.90;99.90;;;;;;5075379;28;20081;-61
2021/11/24 07:41:02;;;;;;;9.65;8.13;;;6.90;99.90;;;;;;5071603;28;20016;-62
2021/11/24 07:44:19;;;;;;;9.23;7.47;;;6.90;99.90;;;;;;5073878;28;20027;-62
2021/11/24 07:47:05;;;;;;;10.13;7.45;;;7.00;99.90;;;;;;5066706;28;20080;-62
2021/11/24 07:49:31;;;;;;;10.40;8.00;;;7.00;99.90;;;;;;5069567;28;20036;-61
2021/11/24 07:51:56;;;;;;;10.60;7.63;;;7.00;99.90;;;;;;5074072;28;20465;-62
2021/11/24 07:54:22;;;;;;;10.48;8.23;;;7.10;99.90;;;;;;5074553;28;20067;-62
2021/11/24 07:59:43;;;;;;;12.13;7.97;;;7.10;99.90;;;;;;5075835;28;20029;-62
2021/11/24 08:02:20;;;;;;;11.27;8.25;;;7.10;99.90;;;;;;5075674;28;20439;-62
2021/11/24 08:05:28;;;;;;;;;;;;;;;;;;;;;
2021/11/24 08:07:55;;;;;;;10.00;7.85;;;7.20;99.90;;;;;;5075485;28;20021;-62
2021/11/24 08:10:20;;;;;;;13.63;7.88;;;7.20;99.90;;;;;;5074207;28;20035;-62
2021/11/24 08:12:46;;;;;;;12.00;8.90;;;7.20;99.90;;;;;;5074163;28;20133;-62
2021/11/24 08:15:26;;;;;;;11.52;8.35;;;7.20;99.90;;;;;;5061852;28;20079;-62
2021/11/24 08:17:52;;;;;;;10.57;7.97;;;7.30;99.90;;;;;;5067257;28;20426;-62
2021/11/24 08:20:17;;;;;;;10.68;8.32;;;7.30;99.90;;;;;;5074082;28;20024;-62
2021/11/24 08:22:43;;;;;;;12.07;9.10;;;7.30;99.90;;;;;;5073004;28;20054;-62
2021/11/24 08:25:25;;;;;;;11.30;8.48;;;7.30;99.90;;;;;;5068656;28;20391;-62
2021/11/24 08:27:51;;;;;;;11.27;8.52;;;7.40;99.90;;;;;;5074718;28;20050;-62
2021/11/24 08:30:52;;;;;;;12.75;8.82;;;7.40;99.90;;;;;;5075030;28;20557;-62
2021/11/24 08:33:18;;;;;;;14.10;11.05;;;7.40;99.90;;;;;;5074338;28;20012;-62
2021/11/24 08:35:44;;;;;;;18.05;13.52;;;7.30;99.90;;;;;;5075364;28;20448;-62
2021/11/24 08:38:09;;;;;;;14.00;11.18;;;7.30;99.90;;;;;;5074771;28;20089;-62
2021/11/24 08:40:35;;;;;;;14.80;11.52;;;7.30;99.90;;;;;;5072971;28;20323;-62
2021/11/24 08:43:02;;;;;;;13.45;9.75;;;7.30;99.90;;;;;;5074548;28;20028;-62
2021/11/24 08:45:27;;;;;;;13.38;9.77;;;7.40;99.90;;;;;;5079154;28;20031;-62
2021/11/24 08:48:06;;;;;;;12.40;9.27;;;7.40;99.90;;;;;;5094051;28;20044;-62
2021/11/24 08:53:41;;;;;;;12.25;9.05;;;7.50;99.90;;;;;;5052745;28;20067;-62
2021/11/24 08:56:06;;;;;;;11.02;8.23;;;7.60;99.90;;;;;;5054196;28;20023;-62
2021/11/24 08:58:32;;;;;;;14.02;9.55;;;7.60;99.90;;;;;;5054017;28;20064;-62
2021/11/24 09:01:06;;;;;;;14.43;10.35;;;7.60;99.90;;;;;;5054184;28;20116;-62
2021/11/24 09:03:32;;;;;;;13.05;10.32;;;7.70;99.90;;;;;;5054227;28;20036;-62
2021/11/24 09:05:59;;;;;;;13.07;9.52;;;7.60;99.90;;;;;;5053962;28;20037;-62
2021/11/24 09:08:24;;;;;;;15.88;12.77;;;7.70;99.90;;;;;;5053786;28;20159;-62
2021/11/24 09:10:50;;;;;;;21.30;16.23;;;7.70;99.90;;;;;;5055543;28;20104;-62
2021/11/24 09:13:15;;;;;;;23.95;16.92;;;7.60;99.90;;;;;;5069897;28;20046;-62
2021/11/24 09:15:41;;;;;;;25.85;18.85;;;7.60;99.90;;;;;;5070686;28;20017;-62
2021/11/24 09:18:07;;;;;;;21.52;16.15;;;7.50;99.90;;;;;;5073563;28;20036;-62
2021/11/24 09:20:34;;;;;;;24.92;17.50;;;7.50;99.90;;;;;;5072818;28;20032;-62
2021/11/24 09:23:01;;;;;;;21.65;16.20;;;7.50;99.90;;;;;;5074160;28;20131;-62
2021/11/24 09:25:36;;;;;;;25.38;16.73;;;7.50;99.90;;;;;;5073883;28;20488;-62
2021/11/24 09:28:08;;;;;;;23.25;15.80;;;7.50;99.90;;;;;;5073131;28;20029;-62
2021/11/24 09:30:34;;;;;;;22.67;14.85;;;7.50;99.90;;;;;;5073762;28;20024;-62
2021/11/24 09:33:00;;;;;;;24.60;16.17;;;7.50;99.90;;;;;;5072453;28;20020;-62
2021/11/24 09:36:05;;;;;;;24.73;16.17;;;7.50;99.90;;;;;;5073661;28;20021;-63
2021/11/24 09:38:31;;;;;;;23.85;13.60;;;7.60;99.90;;;;;;5072908;28;20032;-62
2021/11/24 09:41:05;;;;;;;21.50;13.73;;;7.60;99.90;;;;;;5072375;28;20040;-62
2021/11/24 09:43:55;;;;;;;19.75;13.27;;;7.70;99.90;;;;;;5072115;28;20025;-62
2021/11/24 09:46:22;;;;;;;20.00;13.25;;;7.80;99.90;;;;;;5073333;28;20174;-63
2021/11/24 09:48:51;;;;;;;22.65;14.77;;;7.80;99.90;;;;;;5072956;28;20032;-62
2021/11/24 09:51:19;;;;;;;24.93;15.57;;;7.80;99.90;;;;;;5073253;28;20051;-62
2021/11/24 09:53:48;;;;;;;24.63;15.30;;;7.70;99.90;;;;;;5072020;28;20477;-62
2021/11/24 09:56:14;;;;;;;28.73;15.57;;;7.80;99.90;;;;;;5071894;28;20075;-62
2021/11/24 10:01:41;;;;;;;27.23;15.20;;;7.70;99.90;;;;;;5069114;28;20389;-62
2021/11/24 10:04:08;;;;;;;29.58;15.23;;;7.70;99.90;;;;;;5072936;28;20017;-62
2021/11/24 10:06:35;;;;;;;25.25;15.93;;;7.70;99.90;;;;;;5071557;28;20025;-62
2021/11/24 10:09:26;;;;;;;25.73;15.68;;;7.70;99.90;;;;;;5072836;28;20068;-62
2021/11/24 10:12:22;;;;;;;23.33;14.13;;;7.80;99.90;;;;;;5072753;28;20032;-62
2021/11/24 10:15:44;;;;;;;28.20;14.57;;;7.80;99.90;;;;;;5073762;28;20462;-63
2021/11/24 10:19:02;;;;;;;;;;;;;;;;;;;;;
2021/11/24 10:21:29;;;;;;;30.00;16.70;;;7.90;99.90;;;;;;5057484;28;20029;-62
2021/11/24 10:26:55;;;;;;;30.90;17.95;;;7.90;99.90;;;;;;5052830;28;20071;-62
2021/11/24 10:29:21;;;;;;;33.03;17.80;;;7.90;99.90;;;;;;5072477;28;20404;-62
2021/11/24 10:31:57;;;;;;;33.90;20.90;;;7.90;99.90;;;;;;5072720;28;20447;-62
2021/11/24 10:35:08;;;;;;;;;;;;;;;;;;;;;
2021/11/24 10:37:34;;;;;;;37.67;22.17;;;8.00;99.90;;;;;;5072443;28;20027;-62
2021/11/24 10:40:06;;;;;;;39.88;23.00;;;7.90;99.90;;;;;;5072416;28;20103;-62
2021/11/24 10:45:53;;;;;;;40.53;24.15;;;8.00;99.90;;;;;;5064535;28;20032;-62
2021/11/24 10:48:29;;;;;;;36.70;22.00;;;7.90;99.90;;;;;;5070859;28;20040;-62
2021/11/24 10:50:56;;;;;;;36.97;22.45;;;8.00;99.90;;;;;;5072608;28;20046;-62
2021/11/24 10:53:22;;;;;;;42.35;23.08;;;8.10;99.90;;;;;;5073135;28;20377;-62
2021/11/24 10:55:48;;;;;;;39.38;23.27;;;8.00;99.90;;;;;;5071303;28;20029;-62
2021/11/24 10:58:19;;;;;;;38.92;22.83;;;8.10;99.90;;;;;;5072375;28;20479;-62
2021/11/24 11:00:49;;;;;;;30.50;18.83;;;8.10;99.90;;;;;;5072486;28;20099;-62
2021/11/24 11:03:14;;;;;;;;;;;8.20;99.90;;;;;;5072508;28;20392;-62
2021/11/24 11:05:42;;;;;;;28.45;16.65;;;8.20;99.90;;;;;;5076330;28;19915;-62
2021/11/24 11:08:10;;;;;;;28.33;18.05;;;8.30;99.90;;;;;;5075889;28;20034;-62
2021/11/24 11:10:46;;;;;;;34.00;20.92;;;8.40;99.90;;;;;;5076723;28;20101;-62
2021/11/24 11:13:19;;;;;;;30.05;18.73;;;8.40;99.90;;;;;;5076285;28;20476;-62
2021/11/24 11:15:47;;;;;;;29.50;18.40;;;8.40;99.90;;;;;;5074962;28;20443;-62
2021/11/24 11:18:28;;;;;;;;;;;;;;;;;;;;;
2021/11/24 11:20:58;;;;;;;34.95;20.85;;;8.50;99.90;;;;;;5076263;28;20047;-62
2021/11/24 11:23:26;;;;;;;31.77;19.05;;;8.50;99.90;;;;;;5076360;28;20464;-62
2021/11/24 11:25:56;;;;;;;29.67;18.13;;;8.50;99.90;;;;;;5075055;28;20387;-62
2021/11/24 11:28:25;;;;;;;28.35;17.95;;;8.40;99.90;;;;;;5075701;28;20024;-62
2021/11/24 11:30:54;;;;;;;30.05;19.95;;;8.40;99.90;;;;;;5069193;28;20024;-62
2021/11/24 11:33:32;;;;;;;30.50;18.50;;;8.40;99.90;;;;;;5070823;28;20488;-62
2021/11/24 11:36:20;;;;;;;23.48;15.70;;;8.40;99.90;;;;;;5069780;28;20099;-62
2021/11/24 11:38:49;;;;;;;19.85;12.68;;;8.50;99.90;;;;;;5054391;28;20021;-62
2021/11/24 11:41:24;;;;;;;20.92;12.75;;;8.70;99.90;;;;;;5062849;28;20086;-62
2021/11/24 11:44:07;;;;;;;18.02;11.90;;;8.80;99.90;;;;;;5073391;28;20066;-62
2021/11/24 11:47:06;;;;;;;16.65;10.43;;;8.90;99.90;;;;;;5072844;28;20121;-62
2021/11/24 11:49:32;;;;;;;20.95;12.30;;;9.00;99.90;;;;;;5052175;28;20117;-62
2021/11/24 11:52:16;;;;;;;19.90;12.60;;;9.00;99.90;;;;;;5070687;28;20060;-63
2021/11/24 11:54:58;;;;;;;22.00;13.77;;;9.10;99.90;;;;;;5072071;28;20469;-63
2021/11/24 12:01:38;;;;;;;16.85;10.90;;;9.10;99.90;;;;;;5067393;28;20376;-64
2021/11/24 12:04:19;;;;;;;22.00;13.37;;;9.20;99.90;;;;;;5059885;28;20032;-62
2021/11/24 12:06:53;;;;;;;16.60;12.15;;;9.20;99.90;;;;;;5070627;28;20077;-62
2021/11/24 12:09:23;;;;;;;19.27;13.27;;;9.20;99.90;;;;;;5069311;28;20025;-62
2021/11/24 12:12:01;;;;;;;20.77;12.93;;;9.20;99.90;;;;;;5073679;28;20055;-62
2021/11/24 12:14:51;;;;;;;18.42;13.02;;;9.20;99.90;;;;;;5073023;28;20376;-62
2021/11/24 12:20:22;;;;;;;18.90;11.73;;;9.10;99.90;;;;;;5070460;28;20320;-63
2021/11/24 12:23:38;;;;;;;15.18;10.40;;;9.00;99.90;;;;;;5068496;28;20472;-64
2021/11/24 12:26:04;;;;;;;17.77;12.10;;;9.10;99.90;;;;;;5022986;28;20034;-63
2021/11/24 12:28:35;;;;;;;17.50;12.02;;;9.10;99.90;;;;;;5064787;28;20036;-63
2021/11/24 12:31:03;;;;;;;16.75;11.60;;;9.10;99.90;;;;;;5073755;28;20031;-63
2021/11/24 12:33:36;;;;;;;18.38;12.10;;;9.10;99.90;;;;;;5074403;28;20100;-63
2021/11/24 12:36:40;;;;;;;20.20;12.80;;;9.00;99.90;;;;;;5073527;28;20063;-63
2021/11/24 12:39:08;;;;;;;15.60;10.57;;;8.90;99.90;;;;;;5033926;28;20029;-63
2021/11/24 12:41:39;;;;;;;17.92;11.65;;;8.90;99.90;;;;;;5068150;28;20023;-63
2021/11/24 12:44:09;;;;;;;17.17;11.65;;;8.90;99.90;;;;;;5074284;28;20020;-63
2021/11/24 12:46:38;;;;;;;18.15;12.10;;;8.90;99.90;;;;;;5074264;28;20048;-63
2021/11/24 12:49:08;;;;;;;18.20;12.35;;;8.90;99.90;;;;;;5074322;28;20431;-63
2021/11/24 12:51:51;;;;;;;19.05;13.43;;;8.90;99.90;;;;;;5074241;28;20082;-63
2021/11/24 12:54:20;;;;;;;18.75;13.10;;;8.90;99.90;;;;;;5064816;28;20036;-63
2021/11/24 13:02:49;;;;;;;17.63;12.80;;;8.80;99.90;;;;;;5049608;28;20036;-63
2021/11/24 13:05:15;;;;;;;20.20;13.77;;;8.90;99.90;;;;;;5073126;28;20032;-63
2021/11/24 13:07:41;;;;;;;20.52;13.38;;;8.90;99.90;;;;;;5072438;28;20365;-63
2021/11/24 13:10:06;;;;;;;18.92;12.82;;;8.90;99.90;;;;;;5064754;28;20045;-64
2021/11/24 13:12:34;;;;;;;19.63;14.15;;;8.80;99.90;;;;;;5054548;28;20525;-63
2021/11/24 13:15:00;;;;;;;21.58;14.05;;;8.80;99.90;;;;;;5074092;28;20086;-63
2021/11/24 13:18:00;;;;;;;17.65;12.20;;;8.80;99.90;;;;;;5073433;28;20025;-63
2021/11/24 13:21:09;;;;;;;;;;;;;;;;;;;;;
2021/11/24 13:23:34;;;;;;;17.38;11.38;;;8.90;99.90;;;;;;5065052;28;20027;-63
2021/11/24 13:26:05;;;;;;;16.42;10.57;;;8.90;99.90;;;;;;5073374;28;20107;-63
2021/11/24 13:28:30;;;;;;;17.70;11.98;;;9.00;99.90;;;;;;5066716;28;20115;-63
2021/11/24 13:30:56;;;;;;;22.02;13.55;;;9.00;99.90;;;;;;5053869;28;20476;-63
2021/11/24 13:33:33;;;;;;;24.25;15.93;;;8.90;99.90;;;;;;5069421;28;20021;-63
2021/11/24 13:39:35;;;;;;;;;;;;;;;;;;;;;
2021/11/24 13:42:16;;;;;;;21.50;13.85;;;8.80;99.90;;;;;;5066577;28;20008;-63